createdAt,value
2018-10-05T00:02:23.339Z,59.20
2018-10-05T00:04:52.107Z,59.20
2018-10-05T00:07:20.734Z,59.20
2018-10-05T00:09:49.380Z,59.20
2018-10-05T00:12:18.022Z,59.10
2018-10-05T00:14:46.654Z,59.80
2018-10-05T00:17:15.317Z,59.20
2018-10-05T00:19:43.973Z,59.30
2018-10-05T00:22:12.621Z,59.20
2018-10-05T00:24:41.284Z,59.30
2018-10-05T00:27:09.926Z,59.30
2018-10-05T00:29:38.584Z,59.30
2018-10-05T00:32:07.274Z,59.30
2018-10-05T00:34:35.920Z,59.30
2018-10-05T00:37:04.724Z,59.30
2018-10-05T00:39:33.410Z,59.30
2018-10-05T00:42:02.155Z,59.40
2018-10-05T00:44:30.787Z,59.30
2018-10-05T00:46:59.509Z,59.30
2018-10-05T00:49:28.150Z,59.30
2018-10-05T00:51:56.796Z,59.30
2018-10-05T00:54:25.454Z,59.40
2018-10-05T00:56:54.152Z,59.30
2018-10-05T00:59:22.945Z,59.30
2018-10-05T01:01:51.642Z,59.30
2018-10-05T01:04:20.305Z,59.30
2018-10-05T01:06:48.955Z,59.40
2018-10-05T01:09:17.596Z,59.90
2018-10-05T01:11:46.255Z,59.30
2018-10-05T01:14:14.907Z,59.30
2018-10-05T01:16:43.575Z,59.30
2018-10-05T01:19:12.236Z,59.30
2018-10-05T01:21:40.991Z,59.30
2018-10-05T01:24:09.704Z,59.30
2018-10-05T01:26:38.375Z,59.30
2018-10-05T01:29:07.011Z,59.30
2018-10-05T01:31:35.676Z,59.30
2018-10-05T01:34:04.337Z,59.30
2018-10-05T01:36:32.987Z,59.30
2018-10-05T01:39:01.661Z,59.30
2018-10-05T01:41:30.284Z,59.30
2018-10-05T01:43:58.932Z,59.30
2018-10-05T01:46:27.603Z,59.30
2018-10-05T01:48:56.262Z,59.40
2018-10-05T01:51:28.931Z,59.40
2018-10-05T01:53:57.562Z,59.40
2018-10-05T01:56:26.244Z,59.30
2018-10-05T01:58:54.909Z,59.30
2018-10-05T02:01:23.584Z,59.30
2018-10-05T02:03:52.406Z,59.40
2018-10-05T02:06:21.108Z,59.30
2018-10-05T02:08:50.108Z,59.30
2018-10-05T02:11:18.784Z,59.30
2018-10-05T02:13:47.679Z,59.60
2018-10-05T02:16:16.323Z,59.50
2018-10-05T02:18:45.268Z,59.30
2018-10-05T02:21:14.035Z,59.30
2018-10-05T02:23:42.815Z,59.30
2018-10-05T02:26:11.460Z,59.50
2018-10-05T02:28:40.132Z,59.30
2018-10-05T02:31:08.780Z,59.30
2018-10-05T02:33:37.411Z,59.30
2018-10-05T02:36:06.256Z,59.30
2018-10-05T02:38:35.027Z,59.30
2018-10-05T02:41:04.015Z,59.30
2018-10-05T02:43:33.114Z,59.30
2018-10-05T02:46:01.746Z,59.30
2018-10-05T02:48:30.431Z,59.20
2018-10-05T02:50:59.100Z,59.20
2018-10-05T02:53:27.756Z,59.30
2018-10-05T02:55:56.412Z,59.30
2018-10-05T02:58:25.251Z,59.20
2018-10-05T03:01:05.457Z,59.20
2018-10-05T03:03:34.148Z,59.20
2018-10-05T03:06:02.863Z,59.30
2018-10-05T03:08:31.653Z,59.20
2018-10-05T03:11:00.305Z,59.30
2018-10-05T03:13:28.977Z,59.30
2018-10-05T03:15:57.634Z,59.20
2018-10-05T03:18:26.368Z,59.20
2018-10-05T03:20:55.002Z,59.20
2018-10-05T03:23:23.670Z,59.50
2018-10-05T03:25:52.310Z,59.20
2018-10-05T03:28:20.989Z,59.20
2018-10-05T03:30:49.683Z,59.20
2018-10-05T03:33:18.339Z,59.30
2018-10-05T03:35:47.051Z,59.30
2018-10-05T03:38:15.702Z,59.30
2018-10-05T03:40:44.338Z,59.30
2018-10-05T03:43:12.983Z,59.30
2018-10-05T03:45:41.627Z,59.30
2018-10-05T03:48:10.313Z,59.30
2018-10-05T03:50:38.958Z,59.30
2018-10-05T03:53:07.630Z,59.30
2018-10-05T03:55:36.283Z,59.30
2018-10-05T03:58:04.934Z,59.30
2018-10-05T04:00:33.588Z,59.30
2018-10-05T04:03:02.386Z,59.30
2018-10-05T04:05:31.060Z,59.30
2018-10-05T04:07:59.698Z,59.30
2018-10-05T04:10:28.342Z,59.30
2018-10-05T04:12:56.986Z,59.30
2018-10-05T04:15:25.631Z,59.30
2018-10-05T04:17:54.258Z,59.30
2018-10-05T04:20:22.963Z,59.30
2018-10-05T04:22:51.612Z,59.30
2018-10-05T04:25:20.252Z,59.30
2018-10-05T04:27:48.919Z,59.30
2018-10-05T04:30:17.579Z,59.30
2018-10-05T04:32:46.266Z,60.00
2018-10-05T04:35:14.966Z,59.30
2018-10-05T04:37:43.671Z,59.30
2018-10-05T04:40:12.357Z,59.40
2018-10-05T04:42:41.015Z,59.70
2018-10-05T04:45:09.662Z,60.80
2018-10-05T04:47:38.298Z,61.10
2018-10-05T04:50:06.957Z,61.00
2018-10-05T04:52:35.607Z,60.70
2018-10-05T04:55:04.275Z,60.80
2018-10-05T04:57:32.910Z,61.00
2018-10-05T05:00:01.555Z,60.80
2018-10-05T05:02:30.395Z,60.80
2018-10-05T05:04:59.046Z,61.00
2018-10-05T05:07:27.738Z,61.10
2018-10-05T05:09:56.392Z,61.90
2018-10-05T05:12:25.087Z,63.20
2018-10-05T05:14:54.072Z,63.20
2018-10-05T05:17:22.711Z,63.30
2018-10-05T05:19:51.403Z,63.30
2018-10-05T05:22:20.125Z,63.50
2018-10-05T05:24:48.826Z,63.90
2018-10-05T05:27:17.499Z,64.30
2018-10-05T05:29:46.180Z,64.40
2018-10-05T05:32:14.844Z,63.70
2018-10-05T05:34:43.496Z,63.30
2018-10-05T05:37:12.147Z,64.30
2018-10-05T05:39:40.811Z,64.00
2018-10-05T05:42:09.442Z,64.00
2018-10-05T05:44:38.099Z,63.20
2018-10-05T05:47:06.919Z,63.20
2018-10-05T05:49:35.586Z,63.50
2018-10-05T05:52:04.230Z,63.20
2018-10-05T05:54:32.996Z,63.00
2018-10-05T05:57:01.604Z,63.10
2018-10-05T05:59:30.233Z,63.00
2018-10-05T06:01:58.887Z,63.00
2018-10-05T06:04:27.586Z,63.30
2018-10-05T06:06:56.278Z,63.60
2018-10-05T06:09:25.060Z,62.90
2018-10-05T06:11:53.767Z,62.60
2018-10-05T06:14:22.431Z,62.30
2018-10-05T06:16:51.082Z,62.70
2018-10-05T06:19:19.738Z,62.30
2018-10-05T06:21:48.579Z,61.60
2018-10-05T06:24:17.099Z,61.10
2018-10-05T06:26:45.775Z,61.00
2018-10-05T06:29:14.476Z,60.80
2018-10-05T06:31:43.115Z,60.60
2018-10-05T06:34:11.775Z,60.60
2018-10-05T06:36:40.447Z,60.40
2018-10-05T06:39:09.587Z,60.40
2018-10-05T06:41:38.502Z,60.40
2018-10-05T06:44:07.542Z,60.80
2018-10-05T06:46:36.210Z,59.90
2018-10-05T06:49:04.851Z,63.20
2018-10-05T06:51:33.539Z,64.50
2018-10-05T06:54:02.231Z,65.20
2018-10-05T06:56:30.911Z,65.40
2018-10-05T06:58:59.557Z,65.30
2018-10-05T07:01:28.222Z,65.20
2018-10-05T07:03:56.843Z,64.80
2018-10-05T07:06:25.502Z,64.70
2018-10-05T07:08:54.139Z,64.60
2018-10-05T07:11:22.839Z,64.10
2018-10-05T07:13:51.418Z,64.40
2018-10-05T07:16:20.290Z,64.00
2018-10-05T07:18:48.964Z,64.00
2018-10-05T07:21:17.721Z,63.90
2018-10-05T07:23:46.359Z,63.60
2018-10-05T07:26:15.003Z,63.50
2018-10-05T07:28:43.748Z,64.30
2018-10-05T07:31:12.376Z,63.10
2018-10-05T07:33:41.003Z,62.90
2018-10-05T07:36:09.686Z,63.10
2018-10-05T07:38:39.127Z,62.30
2018-10-05T07:41:07.779Z,62.10
2018-10-05T07:43:36.426Z,61.80
2018-10-05T07:46:05.068Z,61.80
2018-10-05T07:48:33.711Z,62.20
2018-10-05T07:51:02.368Z,62.30
2018-10-05T07:53:31.010Z,62.40
2018-10-05T07:55:59.654Z,62.20
2018-10-05T07:58:28.310Z,62.20
2018-10-05T08:00:56.951Z,62.10
2018-10-05T08:03:25.698Z,62.00
2018-10-05T08:05:54.342Z,62.10
2018-10-05T08:08:23.003Z,62.10
2018-10-05T08:10:51.678Z,62.00
2018-10-05T08:13:20.379Z,61.90
2018-10-05T08:15:49.079Z,61.80
2018-10-05T08:18:18.115Z,61.70
2018-10-05T08:20:46.790Z,61.70
2018-10-05T08:23:15.479Z,61.80
2018-10-05T08:25:44.143Z,61.60
2018-10-05T08:28:12.785Z,61.60
2018-10-05T08:30:41.479Z,61.50
2018-10-05T08:33:10.215Z,61.50
2018-10-05T08:35:38.838Z,61.70
2018-10-05T08:38:07.495Z,61.60
2018-10-05T08:40:36.134Z,61.50
2018-10-05T08:43:04.771Z,61.50
2018-10-05T08:45:33.416Z,61.50
2018-10-05T08:48:02.080Z,61.10
2018-10-05T08:50:30.803Z,59.90
2018-10-05T08:52:59.458Z,59.50
2018-10-05T08:55:28.090Z,59.70
2018-10-05T08:57:56.796Z,59.70
2018-10-05T09:00:25.498Z,59.80
2018-10-05T09:02:54.121Z,60.00
2018-10-05T09:05:22.810Z,60.20
2018-10-05T09:07:51.573Z,60.30
2018-10-05T09:10:20.285Z,60.50
2018-10-05T09:12:48.922Z,60.50
2018-10-05T09:15:17.555Z,60.50
2018-10-05T09:17:46.229Z,60.60
2018-10-05T09:20:14.910Z,60.70
2018-10-05T09:22:43.567Z,60.60
2018-10-05T09:25:12.225Z,60.70
2018-10-05T09:27:40.872Z,60.80
2018-10-05T09:30:09.523Z,60.80
2018-10-05T09:32:38.230Z,60.90
2018-10-05T09:35:06.914Z,60.90
2018-10-05T09:37:35.739Z,60.80
2018-10-05T09:40:04.263Z,60.90
2018-10-05T09:42:32.927Z,60.30
2018-10-05T09:45:01.706Z,60.90
2018-10-05T09:47:30.599Z,60.60
2018-10-05T09:49:59.230Z,60.30
2018-10-05T09:52:27.938Z,60.00
2018-10-05T09:54:56.603Z,59.90
2018-10-05T09:57:25.259Z,60.30
2018-10-05T09:59:53.977Z,60.20
2018-10-05T10:02:28.055Z,60.00
2018-10-05T10:04:56.718Z,59.80
2018-10-05T10:07:25.403Z,59.90
2018-10-05T10:09:54.042Z,60.10
2018-10-05T10:12:22.695Z,60.20
2018-10-05T10:14:51.334Z,60.30
2018-10-05T10:17:20.093Z,60.30
2018-10-05T10:19:48.734Z,60.20
2018-10-05T10:22:17.379Z,60.10
2018-10-05T10:24:46.035Z,60.10
2018-10-05T10:27:14.722Z,60.20
2018-10-05T10:29:43.409Z,60.10
2018-10-05T10:32:12.087Z,60.00
2018-10-05T10:34:40.793Z,60.00
2018-10-05T10:37:09.455Z,59.80
2018-10-05T10:39:38.156Z,59.70
2018-10-05T10:42:06.832Z,59.50
2018-10-05T10:44:35.510Z,59.30
2018-10-05T10:47:04.158Z,59.30
2018-10-05T10:49:32.802Z,59.30
2018-10-05T10:52:01.437Z,59.30
2018-10-05T10:54:30.092Z,59.30
2018-10-05T10:56:58.747Z,59.30
2018-10-05T10:59:27.534Z,59.30
2018-10-05T11:01:56.207Z,59.30
2018-10-05T11:04:24.898Z,59.30
2018-10-05T11:06:53.499Z,59.20
2018-10-05T11:09:22.154Z,59.10
2018-10-05T11:11:50.823Z,59.00
2018-10-05T11:14:19.503Z,58.90
2018-10-05T11:16:48.188Z,58.90
2018-10-05T11:19:16.880Z,58.80
2018-10-05T11:21:45.543Z,58.90
2018-10-05T11:24:14.218Z,58.40
2018-10-05T11:26:42.838Z,58.50
2018-10-05T11:29:12.563Z,58.40
2018-10-05T11:31:41.207Z,57.70
2018-10-05T11:34:09.919Z,57.90
2018-10-05T11:36:38.547Z,57.60
2018-10-05T11:39:07.296Z,57.50
2018-10-05T11:41:35.927Z,57.10
2018-10-05T11:44:04.775Z,57.60
2018-10-05T11:46:33.448Z,57.50
2018-10-05T11:49:02.205Z,57.20
2018-10-05T11:51:30.862Z,57.20
2018-10-05T11:53:59.561Z,57.30
2018-10-05T11:56:28.419Z,57.40
2018-10-05T11:58:57.086Z,57.50
2018-10-05T12:01:25.746Z,57.60
2018-10-05T12:03:54.884Z,57.50
2018-10-05T12:06:23.574Z,57.50
2018-10-05T12:08:52.223Z,57.50
2018-10-05T12:11:20.871Z,57.50
2018-10-05T12:13:49.548Z,57.50
2018-10-05T12:16:18.157Z,57.50
2018-10-05T12:18:46.958Z,57.40
2018-10-05T12:21:15.610Z,57.30
2018-10-05T12:23:44.257Z,57.30
2018-10-05T12:26:12.889Z,57.40
2018-10-05T12:28:41.535Z,57.40
2018-10-05T12:31:10.163Z,57.40
2018-10-05T12:33:38.802Z,57.50
2018-10-05T12:36:07.542Z,57.40
2018-10-05T12:38:36.190Z,57.40
2018-10-05T12:41:04.826Z,57.40
2018-10-05T12:43:33.491Z,57.40
2018-10-05T12:46:02.307Z,57.50
2018-10-05T12:48:31.003Z,57.50
2018-10-05T12:50:59.730Z,57.50
2018-10-05T12:53:28.402Z,57.50
2018-10-05T12:55:57.043Z,57.50
2018-10-05T12:58:25.679Z,57.50
2018-10-05T13:00:54.332Z,57.50
2018-10-05T13:03:23.049Z,57.50
2018-10-05T13:05:52.427Z,57.50
2018-10-05T13:08:21.062Z,57.50
2018-10-05T13:10:49.706Z,57.50
2018-10-05T13:13:18.338Z,57.30
2018-10-05T13:15:47.219Z,57.60
2018-10-05T13:18:15.842Z,57.60
2018-10-05T13:20:44.483Z,57.50
2018-10-05T13:23:13.113Z,57.60
2018-10-05T13:25:41.752Z,57.60
2018-10-05T13:28:10.416Z,57.60
2018-10-05T13:30:39.063Z,57.60
2018-10-05T13:33:07.735Z,57.50
2018-10-05T13:35:36.378Z,57.60
2018-10-05T13:38:05.402Z,57.60
2018-10-05T13:40:34.061Z,58.20
2018-10-05T13:43:02.703Z,57.60
2018-10-05T13:45:31.351Z,57.50
2018-10-05T13:47:59.981Z,57.60
2018-10-05T13:50:28.694Z,57.60
2018-10-05T13:52:57.336Z,57.60
2018-10-05T13:55:26.014Z,57.50
2018-10-05T13:57:54.663Z,57.50
2018-10-05T14:00:23.348Z,57.50
2018-10-05T14:02:52.093Z,57.50
2018-10-05T14:05:20.643Z,57.90
2018-10-05T14:07:49.271Z,57.50
2018-10-05T14:10:17.968Z,57.50
2018-10-05T14:12:46.623Z,57.50
2018-10-05T14:15:15.302Z,57.50
2018-10-05T14:17:44.042Z,57.40
2018-10-05T14:20:12.673Z,57.50
2018-10-05T14:22:41.382Z,57.40
2018-10-05T14:25:10.035Z,57.40
2018-10-05T14:27:38.671Z,57.40
2018-10-05T14:30:07.315Z,57.40
2018-10-05T14:32:35.946Z,57.40
2018-10-05T14:35:04.612Z,57.40
2018-10-05T14:37:33.255Z,57.30
2018-10-05T14:40:01.894Z,57.30
2018-10-05T14:42:30.781Z,57.20
2018-10-05T14:44:59.395Z,57.20
2018-10-05T14:47:28.026Z,57.20
2018-10-05T14:49:56.695Z,57.10
2018-10-05T14:52:26.211Z,57.20
2018-10-05T14:54:55.926Z,57.00
2018-10-05T14:57:24.658Z,57.00
2018-10-05T14:59:53.918Z,57.00
2018-10-05T15:02:22.587Z,56.90
2018-10-05T15:04:51.250Z,56.90
2018-10-05T15:07:19.900Z,56.90
2018-10-05T15:09:48.551Z,56.80
2018-10-05T15:12:17.198Z,56.80
2018-10-05T15:14:45.918Z,57.20
2018-10-05T15:17:14.598Z,56.70
2018-10-05T15:19:43.242Z,56.70
2018-10-05T15:22:11.891Z,56.70
2018-10-05T15:24:40.641Z,56.70
2018-10-05T15:27:09.747Z,56.70
2018-10-05T15:29:38.382Z,56.60
2018-10-05T15:32:07.194Z,56.50
2018-10-05T15:34:35.831Z,56.50
2018-10-05T15:37:04.715Z,56.60
2018-10-05T15:39:33.359Z,56.50
2018-10-05T15:42:02.071Z,56.50
2018-10-05T15:44:30.726Z,56.40
2018-10-05T15:47:04.329Z,56.50
2018-10-05T15:49:33.554Z,56.50
2018-10-05T15:52:02.555Z,56.40
2018-10-05T15:54:31.429Z,56.50
2018-10-05T15:57:00.084Z,56.50
2018-10-05T15:59:34.479Z,57.00
2018-10-05T16:02:03.154Z,56.40
2018-10-05T16:04:31.835Z,56.50
2018-10-05T16:07:00.529Z,56.50
2018-10-05T16:09:29.165Z,56.50
2018-10-05T16:11:57.886Z,56.50
2018-10-05T16:14:26.508Z,56.60
2018-10-05T16:16:55.110Z,56.60
2018-10-05T16:19:23.746Z,56.80
2018-10-05T16:21:52.433Z,56.80
2018-10-05T16:24:27.137Z,56.90
2018-10-05T16:26:55.747Z,57.00
2018-10-05T16:29:24.419Z,56.90
2018-10-05T16:31:53.078Z,57.00
2018-10-05T16:34:21.733Z,57.10
2018-10-05T16:36:53.911Z,57.20
2018-10-05T16:39:23.097Z,57.20
2018-10-05T16:41:51.751Z,57.20
2018-10-05T16:45:52.231Z,57.30
2018-10-05T16:48:20.929Z,57.10
2018-10-05T16:50:49.558Z,57.30
2018-10-05T16:53:18.270Z,56.40
2018-10-05T16:55:46.931Z,57.10
2018-10-05T16:58:15.610Z,56.90
2018-10-05T17:00:44.277Z,56.90
2018-10-05T17:03:13.807Z,57.40
2018-10-05T17:05:42.855Z,57.30
2018-10-05T17:08:11.524Z,57.60
2018-10-05T17:10:40.288Z,57.70
2018-10-05T17:13:08.829Z,58.00
2018-10-05T17:15:37.483Z,57.80
2018-10-05T17:18:06.295Z,58.10
2018-10-05T17:20:34.942Z,58.20
2018-10-05T17:23:03.596Z,58.20
2018-10-05T17:25:32.273Z,58.20
2018-10-05T17:28:00.923Z,58.50
2018-10-05T17:30:29.574Z,58.50
2018-10-05T17:32:58.231Z,58.40
2018-10-05T17:35:26.871Z,58.60
2018-10-05T17:37:55.579Z,58.50
2018-10-05T17:40:24.154Z,58.40
2018-10-05T17:42:52.827Z,58.30
2018-10-05T17:45:21.490Z,59.30
2018-10-05T17:47:50.166Z,58.60
2018-10-05T17:50:18.840Z,58.60
2018-10-05T17:52:47.494Z,58.60
2018-10-05T17:55:16.243Z,58.70
2018-10-05T17:57:44.818Z,58.60
2018-10-05T18:00:13.454Z,59.00
2018-10-05T18:02:42.107Z,58.90
2018-10-05T18:05:10.770Z,58.60
2018-10-05T18:07:39.466Z,58.80
2018-10-05T18:10:08.141Z,59.00
2018-10-05T18:12:36.794Z,58.80
2018-10-05T18:15:05.423Z,58.80
2018-10-05T18:17:34.103Z,58.60
2018-10-05T18:20:02.763Z,58.70
2018-10-05T18:22:31.411Z,58.80
2018-10-05T18:25:00.157Z,58.80
2018-10-05T18:27:29.032Z,58.70
2018-10-05T18:29:57.708Z,58.80
2018-10-05T18:32:26.391Z,58.70
2018-10-05T18:34:55.083Z,58.70
2018-10-05T18:37:23.796Z,58.90
2018-10-05T18:39:52.462Z,58.90
2018-10-05T18:42:21.087Z,58.80
2018-10-05T18:44:49.734Z,59.00
2018-10-05T18:47:18.395Z,59.10
2018-10-05T18:49:47.014Z,59.00
2018-10-05T18:52:15.698Z,59.20
2018-10-05T18:54:44.355Z,59.40
2018-10-05T18:57:15.299Z,59.50
2018-10-05T18:59:44.167Z,59.30
2018-10-05T19:02:13.551Z,59.90
2018-10-05T19:04:42.450Z,59.50
2018-10-05T19:07:11.111Z,59.50
2018-10-05T19:09:39.930Z,60.50
2018-10-05T19:12:08.566Z,59.80
2018-10-05T19:14:37.391Z,59.70
2018-10-05T19:17:06.042Z,59.70
2018-10-05T19:19:34.714Z,60.60
2018-10-05T19:22:03.391Z,61.50
2018-10-05T19:24:32.138Z,60.90
2018-10-05T19:27:00.864Z,61.80
2018-10-05T19:29:29.480Z,67.00
2018-10-05T19:31:58.122Z,67.60
2018-10-05T19:34:26.870Z,67.10
2018-10-05T19:36:55.498Z,66.20
2018-10-05T19:39:24.294Z,66.70
2018-10-05T19:41:52.954Z,65.90
2018-10-05T19:44:21.580Z,65.50
2018-10-05T19:46:50.224Z,65.50
2018-10-05T19:49:18.867Z,65.20
2018-10-05T19:51:47.523Z,65.30
2018-10-05T19:54:16.207Z,65.80
2018-10-05T19:56:44.914Z,65.10
2018-10-05T19:59:13.594Z,64.90
2018-10-05T20:01:42.274Z,64.90
2018-10-05T20:04:10.960Z,64.80
2018-10-05T20:06:39.607Z,65.60
2018-10-05T20:09:08.463Z,64.60
2018-10-05T20:11:37.091Z,64.70
2018-10-05T20:14:05.782Z,64.80
2018-10-05T20:16:34.426Z,64.60
2018-10-05T20:19:03.178Z,64.50
2018-10-05T20:21:31.823Z,64.50
2018-10-05T20:24:00.497Z,64.30
2018-10-05T20:26:29.151Z,64.40
2018-10-05T20:28:58.295Z,64.40
2018-10-05T20:31:26.952Z,64.50
2018-10-05T20:33:55.594Z,64.60
2018-10-05T20:36:24.367Z,64.00
2018-10-05T20:38:52.897Z,63.70
2018-10-05T20:41:21.755Z,63.60
2018-10-05T20:43:50.429Z,63.60
2018-10-05T20:46:19.090Z,63.70
2018-10-05T20:48:47.787Z,63.30
2018-10-05T20:51:16.454Z,63.30
2018-10-05T20:53:45.140Z,63.30
2018-10-05T20:56:13.799Z,63.20
2018-10-05T20:58:42.439Z,63.10
2018-10-05T21:01:11.090Z,63.10
2018-10-05T21:03:39.735Z,62.90
2018-10-05T21:06:08.383Z,62.80
2018-10-05T21:08:37.018Z,62.90
2018-10-05T21:11:05.946Z,62.80
2018-10-05T21:13:34.595Z,62.70
2018-10-05T21:16:03.247Z,62.70
2018-10-05T21:18:31.878Z,62.70
2018-10-05T21:21:00.567Z,63.30
2018-10-05T21:23:29.283Z,62.50
2018-10-05T21:25:57.930Z,62.50
2018-10-05T21:28:26.652Z,62.50
2018-10-05T21:30:55.385Z,62.40
2018-10-05T21:33:24.105Z,62.30
2018-10-05T21:35:52.698Z,62.20
2018-10-05T21:38:21.342Z,62.20
2018-10-05T21:40:49.982Z,62.20
2018-10-05T21:43:18.764Z,62.20
2018-10-05T21:45:47.464Z,62.70
2018-10-05T21:48:16.146Z,62.30
2018-10-05T21:50:44.794Z,62.10
2018-10-05T21:53:13.468Z,62.10
2018-10-05T21:55:42.088Z,62.00
2018-10-05T21:58:10.780Z,61.90
2018-10-05T22:00:39.441Z,61.90
2018-10-05T22:03:08.450Z,62.10
2018-10-05T22:05:37.118Z,61.90
2018-10-05T22:08:05.911Z,61.90
2018-10-05T22:10:35.187Z,62.00
2018-10-05T22:13:03.840Z,61.90
2018-10-05T22:15:32.524Z,61.80
2018-10-05T22:18:01.215Z,61.80
2018-10-05T22:20:29.904Z,61.80
2018-10-05T22:22:59.297Z,61.80
2018-10-05T22:25:27.942Z,61.80
2018-10-05T22:27:56.571Z,61.70
2018-10-05T22:30:25.239Z,61.70
2018-10-05T22:32:53.887Z,61.70
2018-10-05T22:35:22.523Z,61.60
2018-10-05T22:37:51.442Z,61.60
2018-10-05T22:40:20.119Z,61.60
2018-10-05T22:42:48.795Z,61.60
2018-10-05T22:45:17.463Z,61.50
2018-10-05T22:47:46.134Z,61.50
2018-10-05T22:50:14.787Z,61.50
2018-10-05T22:52:43.418Z,61.50
2018-10-05T22:55:12.090Z,62.20
2018-10-05T22:57:40.738Z,61.50
2018-10-05T23:00:09.414Z,61.50
2018-10-05T23:02:38.080Z,62.30
2018-10-05T23:05:06.739Z,61.40
2018-10-05T23:07:35.390Z,61.50
2018-10-05T23:10:04.167Z,61.40
2018-10-05T23:12:32.843Z,61.40
2018-10-05T23:15:01.815Z,61.40
2018-10-05T23:17:30.530Z,62.10
2018-10-05T23:19:59.199Z,61.30
2018-10-05T23:22:27.893Z,62.10
2018-10-05T23:24:56.545Z,61.30
2018-10-05T23:27:25.567Z,61.30
2018-10-05T23:29:54.346Z,61.20
2018-10-05T23:32:23.143Z,61.20
2018-10-05T23:34:51.793Z,61.20
2018-10-05T23:37:20.488Z,61.30
2018-10-05T23:39:49.203Z,61.20
2018-10-05T23:42:17.893Z,61.20
2018-10-05T23:44:46.556Z,61.20
2018-10-05T23:47:16.239Z,61.20
2018-10-05T23:49:45.036Z,61.10
2018-10-05T23:52:35.758Z,61.10
2018-10-05T23:55:04.857Z,61.00
2018-10-05T23:57:34.463Z,61.20
